Terminal Aerodrome Forecast
Issued by NWS

Current Version | Previous Version | Text Only | Print | Product List | Glossary On
Versions: 1 2 3 4 5 6 7 8 9 10 11 12 13
000
FTUS42 TJSJ 180500 RRA
TAFJMZ
TAF
TJMZ 180544Z 1806/1906 05005KT P6SM SCT070
     FM181530 05012KT P6SM SCT030
     FM182200 06006KT P6SM FEW040
      AMD NOT SKED=

USA.gov is the U.S. government's official web portal to all federal, state and local government web resources and services.